Terminal Aerodrome Forecast
Issued by NWS Detroit/Pontiac, MI

Home | Current Version | Previous Version | Text Only | Print | Product List | Glossary On
Versions: 1 2 3 4 5 6 7 8 9 10 11 12 13 14 15 16 17 18 19 20 21 22 23 24 25 26 27
000
FTUS43 KDTX 040902 AAA
TAFDTW
TAF AMD
KDTW 040902Z 0409/0512 20006KT P6SM OVC100
     FM041500 22012G20KT 6SM -SHRA OVC060
      TEMPO 0420/0424 3SM RA OVC025
     FM050200 02007KT P6SM SCT025 OVC050=

USA.gov is the U.S. government's official web portal to all federal, state and local government web resources and services.